createdAt,value
2023-07-18T00:01:15.222Z,100386.72
2023-07-18T00:03:45.129Z,100391.48
2023-07-18T00:06:18.704Z,100384.21
2023-07-18T00:08:48.837Z,100390.58
2023-07-18T00:11:19.114Z,100390.69
2023-07-18T00:13:49.492Z,100389.67
2023-07-18T00:16:19.871Z,100394.91
2023-07-18T00:18:51.358Z,100396.30
2023-07-18T00:21:21.997Z,100389.84
2023-07-18T00:23:52.192Z,100388.02
2023-07-18T00:26:25.112Z,100386.21
2023-07-18T00:28:55.713Z,100398.30
2023-07-18T00:31:26.060Z,100405.45
2023-07-18T00:33:56.351Z,100403.94
2023-07-18T00:36:26.803Z,100405.64
2023-07-18T00:38:57.004Z,100397.56
2023-07-18T00:41:27.529Z,100390.28
2023-07-18T00:43:58.469Z,100384.93
2023-07-18T00:46:30.333Z,100382.80
2023-07-18T00:49:01.571Z,100386.44
2023-07-18T00:51:32.731Z,100383.49
2023-07-18T00:54:04.066Z,100399.90
2023-07-18T00:56:35.617Z,100414.66
2023-07-18T00:59:07.822Z,100424.31
2023-07-18T01:01:38.562Z,100430.50
2023-07-18T01:04:09.669Z,100424.91
2023-07-18T01:06:40.006Z,100421.16
2023-07-18T01:09:10.711Z,100414.17
2023-07-18T01:11:40.834Z,100412.05
2023-07-18T01:14:11.368Z,100411.25
2023-07-18T01:16:43.729Z,100415.35
2023-07-18T01:19:16.110Z,100415.66
2023-07-18T01:21:46.025Z,100412.12
2023-07-18T01:24:16.120Z,100413.22
2023-07-18T01:26:47.077Z,100401.83
2023-07-18T01:29:17.404Z,100405.96
2023-07-18T01:31:48.919Z,100393.47
2023-07-18T01:34:19.067Z,100389.42
2023-07-18T01:36:49.778Z,100389.20
2023-07-18T01:39:20.331Z,100383.26
2023-07-18T01:41:50.451Z,100387.36
2023-07-18T01:44:20.974Z,100387.66
2023-07-18T01:46:51.313Z,100389.83
2023-07-18T01:49:21.625Z,100376.83
2023-07-18T01:51:51.532Z,100380.93
2023-07-18T01:54:21.777Z,100380.41
2023-07-18T01:56:52.390Z,100381.00
2023-07-18T01:59:23.937Z,100381.30
2023-07-18T02:01:54.099Z,100371.81
2023-07-18T02:04:24.793Z,100377.55
2023-07-18T02:06:55.327Z,100392.00
2023-07-18T02:09:25.582Z,100385.52
2023-07-18T02:11:56.791Z,100386.11
2023-07-18T02:14:26.908Z,100383.45
2023-07-18T02:16:58.908Z,100382.41
2023-07-18T02:19:29.190Z,100373.75
2023-07-18T02:21:59.112Z,100371.61
2023-07-18T02:24:28.811Z,100376.83
2023-07-18T02:26:59.958Z,100371.16
2023-07-18T02:29:30.485Z,100369.02
2023-07-18T02:32:00.606Z,100365.27
2023-07-18T02:34:30.732Z,100366.94
2023-07-18T02:37:00.866Z,100375.39
2023-07-18T02:39:33.151Z,100372.42
2023-07-18T02:42:01.960Z,100375.72
2023-07-18T02:44:32.137Z,100380.08
2023-07-18T02:47:02.002Z,100374.12
2023-07-18T02:49:32.044Z,100371.19
2023-07-18T02:52:03.809Z,100361.70
2023-07-18T02:54:33.923Z,100358.47
2023-07-18T02:57:05.933Z,100356.33
2023-07-18T02:59:36.412Z,100348.77
2023-07-18T03:02:07.137Z,100349.34
2023-07-18T03:04:37.480Z,100338.23
2023-07-18T03:07:08.979Z,100333.11
2023-07-18T03:09:39.107Z,100337.49
2023-07-18T03:12:11.458Z,100336.97
2023-07-18T03:14:42.941Z,100338.34
2023-07-18T03:17:13.022Z,100336.20
2023-07-18T03:19:43.308Z,100339.48
2023-07-18T03:22:14.031Z,100338.95
2023-07-18T03:24:44.970Z,100353.61
2023-07-18T03:27:15.304Z,100358.81
2023-07-18T03:29:45.251Z,100357.23
2023-07-18T03:32:15.272Z,100360.52
2023-07-18T03:34:46.059Z,100356.98
2023-07-18T03:37:16.552Z,100352.38
2023-07-18T03:39:46.501Z,100347.48
2023-07-18T03:42:16.619Z,100345.56
2023-07-18T03:44:47.353Z,100346.09
2023-07-18T03:47:21.202Z,100342.59
2023-07-18T03:49:52.094Z,100348.53
2023-07-18T03:52:22.214Z,100351.77
2023-07-18T03:54:52.738Z,100361.00
2023-07-18T03:57:23.241Z,100357.47
2023-07-18T03:59:52.978Z,100361.80
2023-07-18T04:02:22.801Z,100360.17
2023-07-18T04:04:53.222Z,100362.62
2023-07-18T04:07:23.746Z,100368.56
2023-07-18T04:09:53.632Z,100366.08
2023-07-18T04:12:23.984Z,100366.33
2023-07-18T04:14:54.719Z,100368.17
2023-07-18T04:17:25.337Z,100366.23
2023-07-18T04:19:58.411Z,100357.75
2023-07-18T04:22:30.404Z,100367.45
2023-07-18T04:25:00.924Z,100367.95
2023-07-18T04:27:31.456Z,100378.19
2023-07-18T04:30:01.171Z,100372.95
2023-07-18T04:32:31.858Z,100372.31
2023-07-18T04:35:02.024Z,100377.69
2023-07-18T04:37:32.744Z,100367.59
2023-07-18T04:40:02.992Z,100370.77
2023-07-18T04:42:35.858Z,100365.54
2023-07-18T04:45:08.686Z,100369.23
2023-07-18T04:47:39.080Z,100360.95
2023-07-18T04:50:11.472Z,100365.14
2023-07-18T04:52:41.441Z,100372.08
2023-07-18T04:55:12.554Z,100369.02
2023-07-18T04:57:42.705Z,100363.78
2023-07-18T05:00:16.372Z,100373.27
2023-07-18T05:02:46.445Z,100367.45
2023-07-18T05:05:18.754Z,100373.64
2023-07-18T05:07:48.909Z,100369.73
2023-07-18T05:10:19.170Z,100373.68
2023-07-18T05:12:49.353Z,100379.27
2023-07-18T05:15:20.531Z,100379.61
2023-07-18T05:17:49.883Z,100379.47
2023-07-18T05:20:20.140Z,100383.91
2023-07-18T05:22:50.291Z,100385.95
2023-07-18T05:25:20.772Z,100382.03
2023-07-18T05:27:51.301Z,100386.18
2023-07-18T05:30:21.191Z,100393.27
2023-07-18T05:32:54.202Z,100384.59
2023-07-18T05:35:25.468Z,100393.19
2023-07-18T05:37:57.096Z,100392.20
2023-07-18T05:40:27.215Z,100385.22
2023-07-18T05:42:57.337Z,100387.23
2023-07-18T05:45:28.079Z,100394.50
2023-07-18T05:47:57.762Z,100397.33
2023-07-18T05:50:28.109Z,100403.35
2023-07-18T05:52:57.993Z,100397.41
2023-07-18T05:55:29.049Z,100394.45
2023-07-18T05:57:58.045Z,100399.06
2023-07-18T06:00:28.373Z,100391.26
2023-07-18T06:02:59.044Z,100390.19
2023-07-18T06:05:30.047Z,100394.78
2023-07-18T06:08:00.181Z,100390.52
2023-07-18T06:10:29.875Z,100392.39
2023-07-18T06:13:00.605Z,100389.27
2023-07-18T06:15:31.261Z,100388.85
2023-07-18T06:18:01.493Z,100394.20
2023-07-18T06:20:33.619Z,100394.24
2023-07-18T06:23:03.788Z,100391.89
2023-07-18T06:25:34.046Z,100392.09
2023-07-18T06:28:05.413Z,100398.38
2023-07-18T06:30:36.332Z,100393.89
2023-07-18T06:33:05.296Z,100389.09
2023-07-18T06:35:35.973Z,100384.77
2023-07-18T06:38:05.392Z,100388.82
2023-07-18T06:40:35.313Z,100390.59
2023-07-18T06:43:05.105Z,100388.02
2023-07-18T06:45:36.050Z,100387.38
2023-07-18T06:48:06.798Z,100381.56
2023-07-18T06:50:37.296Z,100376.56
2023-07-18T06:53:07.216Z,100379.12
2023-07-18T06:55:36.845Z,100386.16
2023-07-18T06:58:06.837Z,100378.70
2023-07-18T07:00:36.941Z,100386.52
2023-07-18T07:03:09.189Z,100385.48
2023-07-18T07:05:40.672Z,100387.38
2023-07-18T07:08:11.264Z,100384.25
2023-07-18T07:10:42.334Z,100387.62
2023-07-18T07:13:11.146Z,100382.73
2023-07-18T07:15:42.170Z,100391.42
2023-07-18T07:18:12.285Z,100380.91
2023-07-18T07:20:42.197Z,100388.80
2023-07-18T07:23:11.962Z,100387.05
2023-07-18T07:25:45.110Z,100386.45
2023-07-18T07:28:15.361Z,100395.77
2023-07-18T07:30:45.393Z,100393.48
2023-07-18T07:33:15.600Z,100393.66
2023-07-18T07:35:46.612Z,100395.09
2023-07-18T07:38:18.284Z,100397.75
2023-07-18T07:40:47.857Z,100396.16
2023-07-18T07:43:17.581Z,100389.74
2023-07-18T07:45:47.455Z,100396.39
2023-07-18T07:48:17.643Z,100397.61
2023-07-18T07:50:49.059Z,100391.95
2023-07-18T07:53:19.192Z,100391.78
2023-07-18T07:55:48.974Z,100400.19
2023-07-18T07:58:18.500Z,100394.95
2023-07-18T08:00:48.812Z,100397.00
2023-07-18T08:03:19.559Z,100389.98
2023-07-18T08:05:50.482Z,100392.41
2023-07-18T08:08:19.981Z,100397.98
2023-07-18T08:10:49.904Z,100395.67
2023-07-18T08:13:20.146Z,100386.24
2023-07-18T08:15:51.577Z,100389.09
2023-07-18T08:18:21.503Z,100392.08
2023-07-18T08:20:51.401Z,100386.72
2023-07-18T08:23:21.325Z,100385.84
2023-07-18T08:25:51.430Z,100386.37
2023-07-18T08:28:22.720Z,100385.70
2023-07-18T08:30:52.899Z,100381.15
2023-07-18T08:33:24.862Z,100378.25
2023-07-18T08:35:54.989Z,100380.50
2023-07-18T08:38:24.888Z,100389.01
2023-07-18T08:40:54.408Z,100380.43
2023-07-18T08:43:25.550Z,100382.94
2023-07-18T08:45:56.880Z,100381.12
2023-07-18T08:48:26.963Z,100375.65
2023-07-18T08:51:00.773Z,100376.94
2023-07-18T08:53:31.133Z,100390.25
2023-07-18T08:56:01.915Z,100382.13
2023-07-18T08:58:31.988Z,100385.94
2023-07-18T09:01:01.897Z,100394.34
2023-07-18T09:03:32.880Z,100383.47
2023-07-18T09:06:05.217Z,100385.23
2023-07-18T09:08:42.902Z,100388.20
2023-07-18T09:11:13.540Z,100385.25
2023-07-18T09:13:44.712Z,100390.64
2023-07-18T09:16:16.526Z,100399.36
2023-07-18T09:18:50.872Z,100398.64
2023-07-18T09:21:22.018Z,100390.48
2023-07-18T09:23:53.449Z,100393.03
2023-07-18T09:26:23.840Z,100402.28
2023-07-18T09:28:53.175Z,100394.08
2023-07-18T09:31:25.401Z,100402.13
2023-07-18T09:33:56.394Z,100397.44
2023-07-18T09:36:27.252Z,100384.83
2023-07-18T09:38:57.039Z,100376.17
2023-07-18T09:41:26.999Z,100377.44
2023-07-18T09:44:13.937Z,100379.02
2023-07-18T09:46:46.232Z,100372.20
2023-07-18T09:49:15.719Z,100374.97
2023-07-18T09:51:52.216Z,100371.44
2023-07-18T09:54:23.689Z,100365.17
2023-07-18T09:56:55.717Z,100371.94
2023-07-18T09:59:28.991Z,100363.08
2023-07-18T10:01:59.644Z,100358.76
2023-07-18T10:04:30.583Z,100351.38
2023-07-18T10:07:02.748Z,100353.48
2023-07-18T10:09:34.036Z,100350.88
2023-07-18T10:12:12.211Z,100347.02
2023-07-18T10:14:57.500Z,100335.59
2023-07-18T10:17:34.894Z,100337.58
2023-07-18T10:20:13.897Z,100349.09
2023-07-18T10:22:53.896Z,100346.31
2023-07-18T10:25:23.752Z,100341.54
2023-07-18T10:27:54.719Z,100344.38
2023-07-18T10:30:25.197Z,100347.62
2023-07-18T10:32:56.774Z,100344.06
2023-07-18T10:35:28.068Z,100352.77
2023-07-18T10:38:03.707Z,100347.59
2023-07-18T10:40:39.740Z,100349.18
2023-07-18T10:43:11.108Z,100346.84
2023-07-18T10:45:42.811Z,100338.54
2023-07-18T10:48:16.695Z,100336.16
2023-07-18T10:50:49.499Z,100340.94
2023-07-18T10:53:21.090Z,100342.55
2023-07-18T10:55:52.976Z,100339.37
2023-07-18T10:58:23.979Z,100339.37
2023-07-18T11:00:54.140Z,100339.75
2023-07-18T11:03:27.721Z,100338.94
2023-07-18T11:05:57.993Z,100337.75
2023-07-18T11:08:28.338Z,100334.59
2023-07-18T11:10:59.843Z,100336.99
2023-07-18T11:13:31.653Z,100337.39
2023-07-18T11:16:03.609Z,100329.86
2023-07-18T11:18:36.690Z,100330.66
2023-07-18T11:21:07.965Z,100333.80
2023-07-18T11:23:39.300Z,100331.75
2023-07-18T11:26:15.544Z,100334.06
2023-07-18T11:28:47.025Z,100343.09
2023-07-18T11:34:02.494Z,100322.78
2023-07-18T11:36:34.105Z,100322.79
2023-07-18T11:39:04.700Z,100316.87
2023-07-18T11:41:35.340Z,100312.91
2023-07-18T11:44:06.438Z,100312.17
2023-07-18T11:46:41.290Z,100309.80
2023-07-18T11:49:13.251Z,100311.80
2023-07-18T11:51:44.191Z,100303.48
2023-07-18T11:54:14.494Z,100313.39
2023-07-18T11:56:44.608Z,100304.26
2023-07-18T11:59:14.758Z,100300.33
2023-07-18T12:01:44.709Z,100306.74
2023-07-18T12:04:15.015Z,100304.02
2023-07-18T12:06:44.086Z,100313.96
2023-07-18T12:09:13.777Z,100313.96
2023-07-18T12:11:45.056Z,100310.39
2023-07-18T12:14:15.458Z,100306.05
2023-07-18T12:16:45.601Z,100302.47
2023-07-18T12:19:15.857Z,100300.89
2023-07-18T12:21:45.615Z,100301.27
2023-07-18T12:24:16.535Z,100302.05
2023-07-18T12:26:46.252Z,100306.42
2023-07-18T12:29:17.889Z,100304.02
2023-07-18T12:31:50.000Z,100307.58
2023-07-18T12:34:20.212Z,100296.48
2023-07-18T12:36:48.963Z,100303.59
2023-07-18T12:39:20.068Z,100302.41
2023-07-18T12:41:49.666Z,100308.36
2023-07-18T12:44:24.321Z,100305.20
2023-07-18T12:46:57.154Z,100302.86
2023-07-18T12:51:58.846Z,100302.86
2023-07-18T12:54:29.036Z,100307.60
2023-07-18T12:57:00.517Z,100301.25
2023-07-18T12:59:30.502Z,100298.04
2023-07-18T13:02:00.889Z,100298.84
2023-07-18T13:04:31.353Z,100304.02
2023-07-18T13:07:01.466Z,100295.27
2023-07-18T13:09:32.006Z,100292.11
2023-07-18T13:12:01.513Z,100297.28
2023-07-18T13:14:32.848Z,100293.74
2023-07-18T13:17:02.170Z,100294.14
2023-07-18T13:19:31.863Z,100285.02
2023-07-18T13:22:01.979Z,100295.75
2023-07-18T13:24:32.099Z,100286.21
2023-07-18T13:27:01.811Z,100283.44
2023-07-18T13:29:31.448Z,100283.84
2023-07-18T13:32:01.088Z,100284.63
2023-07-18T13:34:32.165Z,100282.25
2023-07-18T13:37:03.435Z,100288.19
2023-07-18T13:39:33.391Z,100289.39
2023-07-18T13:42:03.146Z,100283.81
2023-07-18T13:44:35.271Z,100288.13
2023-07-18T13:47:05.639Z,100284.52
2023-07-18T13:49:49.645Z,100285.67
2023-07-18T13:52:22.866Z,100272.59
2023-07-18T13:54:54.417Z,100278.13
2023-07-18T13:57:24.739Z,100262.70
2023-07-18T13:59:54.268Z,100271.42
2023-07-18T14:02:24.577Z,100266.23
2023-07-18T14:04:54.694Z,100259.49
2023-07-18T14:07:23.985Z,100256.34
2023-07-18T14:09:53.874Z,100263.88
2023-07-18T14:12:23.942Z,100259.92
2023-07-18T14:14:54.137Z,100260.70
2023-07-18T14:17:23.007Z,100257.13
2023-07-18T14:19:52.948Z,100257.91
2023-07-18T14:22:23.393Z,100263.05
2023-07-18T14:24:53.389Z,100256.69
2023-07-18T14:27:22.911Z,100261.05
2023-07-18T14:29:52.810Z,100260.63
2023-07-18T14:32:23.124Z,100262.21
2023-07-18T14:34:52.426Z,100255.08
2023-07-18T14:37:22.547Z,100256.23
2023-07-18T14:40:02.896Z,100249.88
2023-07-18T14:42:31.512Z,100257.81
2023-07-18T14:45:01.308Z,100263.73
2023-07-18T14:47:30.932Z,100273.98
2023-07-18T14:50:02.675Z,100271.24
2023-07-18T14:52:32.477Z,100275.23
2023-07-18T14:55:03.081Z,100264.48
2023-07-18T14:57:32.689Z,100273.94
2023-07-18T15:00:02.953Z,100271.95
2023-07-18T15:02:33.572Z,100280.67
2023-07-18T15:05:03.865Z,100279.45
2023-07-18T15:07:34.006Z,100274.63
2023-07-18T15:10:03.980Z,100290.39
2023-07-18T15:12:33.600Z,100276.86
2023-07-18T15:15:04.171Z,100281.55
2023-07-18T15:17:40.388Z,100294.16
2023-07-18T15:20:12.849Z,100280.30
2023-07-18T15:22:43.782Z,100287.38
2023-07-18T15:25:13.847Z,100287.37
2023-07-18T15:27:44.713Z,100286.19
2023-07-18T15:30:15.162Z,100294.50
2023-07-18T15:32:46.897Z,100299.16
2023-07-18T15:35:17.365Z,100308.95
2023-07-18T15:37:47.245Z,100303.75
2023-07-18T15:40:17.078Z,100308.77
2023-07-18T15:42:46.287Z,100315.77
2023-07-18T15:45:16.027Z,100321.95
2023-07-18T15:47:46.714Z,100315.53
2023-07-18T15:50:16.271Z,100322.55
2023-07-18T15:52:46.383Z,100322.70
2023-07-18T15:55:16.496Z,100326.88
2023-07-18T15:57:45.925Z,100320.78
2023-07-18T16:00:17.795Z,100322.57
2023-07-18T16:02:47.934Z,100322.89
2023-07-18T16:05:17.986Z,100322.78
2023-07-18T16:07:47.924Z,100319.06
2023-07-18T16:10:17.535Z,100318.09
2023-07-18T16:12:47.981Z,100320.25
2023-07-18T16:15:17.844Z,100322.81
2023-07-18T16:17:47.533Z,100329.73
2023-07-18T16:20:17.256Z,100333.53
2023-07-18T16:22:53.035Z,100331.08
2023-07-18T16:25:22.992Z,100334.14
2023-07-18T16:27:54.526Z,100338.80
2023-07-18T16:30:24.468Z,100332.80
2023-07-18T16:32:55.531Z,100337.84
2023-07-18T16:35:25.561Z,100339.36
2023-07-18T16:37:55.076Z,100328.91
2023-07-18T16:40:24.979Z,100337.87
2023-07-18T16:42:57.288Z,100344.75
2023-07-18T16:45:27.401Z,100341.06
2023-07-18T16:47:57.645Z,100354.71
2023-07-18T16:50:27.850Z,100347.07
2023-07-18T16:52:58.580Z,100343.75
2023-07-18T16:55:29.597Z,100348.77
2023-07-18T16:57:59.720Z,100355.73
2023-07-18T17:00:29.172Z,100349.17
2023-07-18T17:02:59.216Z,100352.11
2023-07-18T17:05:29.468Z,100355.80
2023-07-18T17:07:59.574Z,100357.47
2023-07-18T17:10:30.204Z,100352.94
2023-07-18T17:13:00.434Z,100362.00
2023-07-18T17:15:31.376Z,100355.32
2023-07-18T17:18:01.563Z,100361.58
2023-07-18T17:20:31.458Z,100364.77
2023-07-18T17:23:01.573Z,100366.06
2023-07-18T17:25:31.767Z,100360.28
2023-07-18T17:28:01.732Z,100361.56
2023-07-18T17:30:31.466Z,100357.67
2023-07-18T17:33:02.265Z,100357.02
2023-07-18T17:35:31.089Z,100363.38
2023-07-18T17:38:00.607Z,100367.30
2023-07-18T17:40:30.082Z,100364.98
2023-07-18T17:43:04.230Z,100370.50
2023-07-18T17:45:35.048Z,100371.52
2023-07-18T17:48:06.057Z,100367.98
2023-07-18T17:50:35.560Z,100371.16
2023-07-18T17:53:06.015Z,100364.47
2023-07-18T17:55:36.258Z,100364.45
2023-07-18T17:58:06.050Z,100361.82
2023-07-18T18:00:35.473Z,100369.00
2023-07-18T18:03:06.576Z,100368.95
2023-07-18T18:05:46.272Z,100369.70
2023-07-18T18:08:16.990Z,100375.93
2023-07-18T18:10:46.258Z,100382.17
2023-07-18T18:13:16.593Z,100381.45
2023-07-18T18:16:05.107Z,100383.92
2023-07-18T18:18:37.326Z,100375.08
2023-07-18T18:21:09.475Z,100388.67
2023-07-18T18:23:40.730Z,100385.27
2023-07-18T18:26:11.174Z,100400.31
2023-07-18T18:28:41.267Z,100390.67
2023-07-18T18:31:13.312Z,100399.28
2023-07-18T18:33:43.352Z,100389.36
2023-07-18T18:36:14.096Z,100396.52
2023-07-18T18:38:44.538Z,100393.80
2023-07-18T18:41:15.182Z,100395.42
2023-07-18T18:43:45.252Z,100387.23
2023-07-18T18:46:15.433Z,100395.15
2023-07-18T18:48:45.084Z,100403.06
2023-07-18T18:51:15.410Z,100397.29
2023-07-18T18:53:44.833Z,100393.12
2023-07-18T18:56:14.834Z,100405.06
2023-07-18T18:58:45.332Z,100397.33
2023-07-18T19:01:15.471Z,100396.37
2023-07-18T19:03:45.600Z,100390.77
2023-07-18T19:06:15.502Z,100387.52
2023-07-18T19:08:45.224Z,100383.48
2023-07-18T19:11:15.953Z,100383.65
2023-07-18T19:13:49.266Z,100388.02
2023-07-18T19:16:32.856Z,100386.72
2023-07-18T19:19:09.197Z,100394.12
2023-07-18T19:21:40.183Z,100388.97
2023-07-18T19:24:10.145Z,100396.06
2023-07-18T19:26:39.780Z,100393.48
2023-07-18T19:29:09.930Z,100390.88
2023-07-18T19:31:40.682Z,100392.16
2023-07-18T19:34:10.365Z,100381.38
2023-07-18T19:36:40.485Z,100397.59
2023-07-18T19:39:12.035Z,100397.75
2023-07-18T19:41:43.395Z,100397.41
2023-07-18T19:44:13.098Z,100389.36
2023-07-18T19:46:43.235Z,100387.59
2023-07-18T19:49:13.746Z,100388.53
2023-07-18T19:51:44.672Z,100396.39
2023-07-18T19:54:14.407Z,100400.08
2023-07-18T19:56:44.920Z,100409.70
2023-07-18T19:59:15.160Z,100411.16
2023-07-18T20:01:46.882Z,100406.10
2023-07-18T20:04:17.548Z,100402.72
2023-07-18T20:06:47.050Z,100408.62
2023-07-18T20:09:17.140Z,100415.83
2023-07-18T20:11:48.300Z,100411.33
2023-07-18T20:14:18.330Z,100420.44
2023-07-18T20:16:48.223Z,100426.86
2023-07-18T20:19:18.854Z,100428.89
2023-07-18T20:21:49.150Z,100433.69
2023-07-18T20:24:19.082Z,100437.67
2023-07-18T20:26:48.994Z,100445.98
2023-07-18T20:29:20.144Z,100437.06
2023-07-18T20:31:50.926Z,100438.02
2023-07-18T20:34:20.798Z,100446.62
2023-07-18T20:36:51.121Z,100452.52
2023-07-18T20:39:21.275Z,100454.05
2023-07-18T20:41:51.180Z,100460.44
2023-07-18T20:44:21.275Z,100460.56
2023-07-18T20:46:51.168Z,100463.90
2023-07-18T20:49:22.332Z,100464.80
2023-07-18T20:51:52.459Z,100471.98
2023-07-18T20:54:22.777Z,100481.89
2023-07-18T20:56:52.681Z,100484.11
2023-07-18T20:59:23.413Z,100496.45
2023-07-18T21:01:54.006Z,100491.72
2023-07-18T21:04:24.281Z,100499.97
2023-07-18T21:06:54.390Z,100500.88
2023-07-18T21:09:25.330Z,100504.20
2023-07-18T21:11:55.440Z,100510.58
2023-07-18T21:14:25.365Z,100504.12
2023-07-18T21:16:55.689Z,100504.50
2023-07-18T21:19:26.211Z,100503.20
2023-07-18T21:21:56.935Z,100504.89
2023-07-18T21:24:26.856Z,100490.25
2023-07-18T21:26:57.076Z,100493.90
2023-07-18T21:29:27.302Z,100487.13
2023-07-18T21:31:57.865Z,100482.88
2023-07-18T21:34:27.487Z,100477.24
2023-07-18T21:36:58.705Z,100480.06
2023-07-18T21:39:29.617Z,100480.16
2023-07-18T21:41:59.424Z,100472.84
2023-07-18T21:44:29.442Z,100481.09
2023-07-18T21:46:59.349Z,100479.80
2023-07-18T21:49:30.312Z,100469.80
2023-07-18T21:52:00.204Z,100471.50
2023-07-18T21:54:30.332Z,100472.69
2023-07-18T21:57:00.031Z,100476.61
2023-07-18T21:59:31.792Z,100486.27
2023-07-18T22:02:02.255Z,100485.53
2023-07-18T22:04:32.219Z,100481.59
2023-07-18T22:07:02.143Z,100484.67
2023-07-18T22:09:33.620Z,100481.23
2023-07-18T22:12:04.368Z,100495.16
2023-07-18T22:14:34.362Z,100493.34
2023-07-18T22:17:04.366Z,100497.23
2023-07-18T22:19:34.997Z,100496.48
2023-07-18T22:22:06.520Z,100502.00
2023-07-18T22:24:36.463Z,100507.51
2023-07-18T22:27:07.400Z,100511.91
2023-07-18T22:29:37.961Z,100506.55
2023-07-18T22:32:10.188Z,100498.45
2023-07-18T22:34:40.418Z,100499.34
2023-07-18T22:37:10.660Z,100495.34
2023-07-18T22:39:42.849Z,100501.16
2023-07-18T22:42:17.197Z,100504.20
2023-07-18T22:44:48.456Z,100505.64
2023-07-18T22:47:17.733Z,100501.94
2023-07-18T22:49:48.301Z,100514.23
2023-07-18T22:52:19.407Z,100505.62
2023-07-18T22:54:51.240Z,100498.09
2023-07-18T22:57:21.925Z,100501.69
2023-07-18T22:59:53.721Z,100503.36
2023-07-18T23:02:24.455Z,100487.91
2023-07-18T23:04:54.336Z,100477.92
2023-07-18T23:07:24.660Z,100485.81
2023-07-18T23:09:55.601Z,100483.97
2023-07-18T23:12:25.100Z,100479.39
2023-07-18T23:14:55.229Z,100475.89
2023-07-18T23:17:25.871Z,100471.30
2023-07-18T23:19:55.845Z,100468.63
2023-07-18T23:22:25.787Z,100462.95
2023-07-18T23:24:56.316Z,100468.16
2023-07-18T23:27:26.215Z,100472.00
2023-07-18T23:29:56.548Z,100467.41
2023-07-18T23:32:26.689Z,100462.33
2023-07-18T23:34:57.951Z,100465.60
2023-07-18T23:37:28.533Z,100463.72
2023-07-18T23:39:58.446Z,100459.95
2023-07-18T23:42:29.917Z,100455.39
2023-07-18T23:44:59.704Z,100452.42
2023-07-18T23:47:29.845Z,100456.79
2023-07-18T23:49:59.952Z,100455.50
2023-07-18T23:52:29.874Z,100443.06
2023-07-18T23:54:59.989Z,100447.40
2023-07-18T23:57:29.877Z,100454.48
